sensor_id;sensor_type;location;lat;lon;timestamp;P1;durP1;ratioP1;P2;durP2;ratioP2
54945;SDS011;40846;44.788;20.486;2024-03-23T00:56:20;49.83;;;26.63;;
54945;SDS011;40846;44.788;20.486;2024-03-23T00:58:49;47.65;;;26.35;;
54945;SDS011;40846;44.788;20.486;2024-03-23T01:01:17;48.70;;;25.02;;
54945;SDS011;40846;44.788;20.486;2024-03-23T01:03:43;55.92;;;27.42;;
54945;SDS011;40846;44.788;20.486;2024-03-23T01:06:09;57.47;;;27.67;;
54945;SDS011;40846;44.788;20.486;2024-03-23T01:08:35;51.45;;;27.63;;
54945;SDS011;40846;44.788;20.486;2024-03-23T01:11:01;55.28;;;26.65;;
54945;SDS011;40846;44.788;20.486;2024-03-23T01:13:27;51.35;;;25.85;;
54945;SDS011;40846;44.788;20.486;2024-03-23T01:15:54;55.28;;;27.25;;
54945;SDS011;40846;44.788;20.486;2024-03-23T01:18:21;44.45;;;25.83;;
54945;SDS011;40846;44.788;20.486;2024-03-23T01:20:47;51.50;;;25.17;;
54945;SDS011;40846;44.788;20.486;2024-03-23T01:23:14;49.30;;;24.85;;
54945;SDS011;40846;44.788;20.486;2024-03-23T01:25:40;53.30;;;25.50;;
54945;SDS011;40846;44.788;20.486;2024-03-23T01:28:06;49.90;;;24.65;;
54945;SDS011;40846;44.788;20.486;2024-03-23T01:30:35;45.55;;;25.35;;
54945;SDS011;40846;44.788;20.486;2024-03-23T01:33:01;41.03;;;23.55;;
54945;SDS011;40846;44.788;20.486;2024-03-23T01:35:28;48.72;;;24.10;;
54945;SDS011;40846;44.788;20.486;2024-03-23T01:37:54;44.10;;;25.13;;
54945;SDS011;40846;44.788;20.486;2024-03-23T01:40:20;45.90;;;23.05;;
54945;SDS011;40846;44.788;20.486;2024-03-23T01:42:56;40.40;;;23.58;;
54945;SDS011;40846;44.788;20.486;2024-03-23T01:45:22;39.13;;;22.00;;
54945;SDS011;40846;44.788;20.486;2024-03-23T01:47:49;46.30;;;22.83;;
54945;SDS011;40846;44.788;20.486;2024-03-23T01:50:15;39.88;;;22.42;;
54945;SDS011;40846;44.788;20.486;2024-03-23T01:52:42;36.65;;;22.02;;
54945;SDS011;40846;44.788;20.486;2024-03-23T01:55:08;48.63;;;21.77;;
54945;SDS011;40846;44.788;20.486;2024-03-23T01:57:34;37.63;;;21.40;;
54945;SDS011;40846;44.788;20.486;2024-03-23T02:00:00;43.50;;;21.02;;
54945;SDS011;40846;44.788;20.486;2024-03-23T02:02:28;52.60;;;21.75;;
54945;SDS011;40846;44.788;20.486;2024-03-23T02:04:54;37.50;;;20.67;;
54945;SDS011;40846;44.788;20.486;2024-03-23T02:07:20;39.72;;;20.27;;
54945;SDS011;40846;44.788;20.486;2024-03-23T02:09:46;39.38;;;21.30;;
54945;SDS011;40846;44.788;20.486;2024-03-23T02:12:13;40.03;;;21.50;;
54945;SDS011;40846;44.788;20.486;2024-03-23T02:14:39;48.72;;;21.92;;
54945;SDS011;40846;44.788;20.486;2024-03-23T02:17:05;41.50;;;22.15;;
54945;SDS011;40846;44.788;20.486;2024-03-23T02:19:31;41.05;;;21.70;;
54945;SDS011;40846;44.788;20.486;2024-03-23T02:21:57;43.60;;;19.27;;
54945;SDS011;40846;44.788;20.486;2024-03-23T02:24:23;34.45;;;19.67;;
54945;SDS011;40846;44.788;20.486;2024-03-23T02:26:49;37.58;;;20.73;;
54945;SDS011;40846;44.788;20.486;2024-03-23T02:29:15;40.88;;;20.33;;
54945;SDS011;40846;44.788;20.486;2024-03-23T02:31:42;37.60;;;19.27;;
54945;SDS011;40846;44.788;20.486;2024-03-23T02:34:08;43.20;;;19.60;;
54945;SDS011;40846;44.788;20.486;2024-03-23T02:36:34;35.30;;;18.65;;
54945;SDS011;40846;44.788;20.486;2024-03-23T02:39:00;33.95;;;19.33;;
54945;SDS011;40846;44.788;20.486;2024-03-23T02:41:26;33.90;;;19.58;;
54945;SDS011;40846;44.788;20.486;2024-03-23T02:43:52;33.58;;;18.13;;
54945;SDS011;40846;44.788;20.486;2024-03-23T02:46:18;34.45;;;19.55;;
54945;SDS011;40846;44.788;20.486;2024-03-23T02:48:45;39.35;;;19.27;;
54945;SDS011;40846;44.788;20.486;2024-03-23T02:51:11;37.90;;;19.48;;
54945;SDS011;40846;44.788;20.486;2024-03-23T02:53:37;29.98;;;18.02;;
54945;SDS011;40846;44.788;20.486;2024-03-23T02:56:03;33.70;;;18.92;;
54945;SDS011;40846;44.788;20.486;2024-03-23T02:58:29;30.08;;;18.05;;
54945;SDS011;40846;44.788;20.486;2024-03-23T03:00:55;33.90;;;16.90;;
54945;SDS011;40846;44.788;20.486;2024-03-23T03:03:21;34.67;;;17.40;;
54945;SDS011;40846;44.788;20.486;2024-03-23T03:05:48;35.90;;;18.42;;
54945;SDS011;40846;44.788;20.486;2024-03-23T03:08:14;38.55;;;18.42;;
54945;SDS011;40846;44.788;20.486;2024-03-23T03:10:40;38.03;;;17.58;;
54945;SDS011;40846;44.788;20.486;2024-03-23T03:13:06;37.03;;;18.45;;
54945;SDS011;40846;44.788;20.486;2024-03-23T03:15:32;39.13;;;19.50;;
54945;SDS011;40846;44.788;20.486;2024-03-23T03:17:58;39.03;;;18.40;;
54945;SDS011;40846;44.788;20.486;2024-03-23T03:20:24;34.60;;;19.42;;
54945;SDS011;40846;44.788;20.486;2024-03-23T03:22:50;36.70;;;18.85;;
54945;SDS011;40846;44.788;20.486;2024-03-23T03:25:18;46.35;;;17.10;;
54945;SDS011;40846;44.788;20.486;2024-03-23T03:27:44;45.38;;;18.48;;
54945;SDS011;40846;44.788;20.486;2024-03-23T03:30:11;41.05;;;17.83;;
54945;SDS011;40846;44.788;20.486;2024-03-23T03:32:37;38.58;;;18.75;;
54945;SDS011;40846;44.788;20.486;2024-03-23T03:35:04;32.63;;;17.48;;
54945;SDS011;40846;44.788;20.486;2024-03-23T03:37:30;47.13;;;17.77;;
54945;SDS011;40846;44.788;20.486;2024-03-23T03:39:56;34.58;;;16.60;;
54945;SDS011;40846;44.788;20.486;2024-03-23T03:42:22;39.38;;;17.73;;
54945;SDS011;40846;44.788;20.486;2024-03-23T03:44:48;38.03;;;17.15;;
54945;SDS011;40846;44.788;20.486;2024-03-23T03:47:14;36.42;;;17.25;;
54945;SDS011;40846;44.788;20.486;2024-03-23T03:49:41;38.05;;;17.02;;
54945;SDS011;40846;44.788;20.486;2024-03-23T03:52:07;41.80;;;20.27;;
54945;SDS011;40846;44.788;20.486;2024-03-23T03:54:33;40.90;;;21.02;;
54945;SDS011;40846;44.788;20.486;2024-03-23T03:56:59;32.53;;;18.50;;
54945;SDS011;40846;44.788;20.486;2024-03-23T03:59:26;38.30;;;18.63;;
54945;SDS011;40846;44.788;20.486;2024-03-23T04:01:52;33.08;;;17.52;;
54945;SDS011;40846;44.788;20.486;2024-03-23T04:04:18;43.35;;;20.38;;
54945;SDS011;40846;44.788;20.486;2024-03-23T04:06:45;39.58;;;20.98;;
54945;SDS011;40846;44.788;20.486;2024-03-23T04:09:11;30.38;;;16.52;;
54945;SDS011;40846;44.788;20.486;2024-03-23T04:11:37;39.85;;;17.23;;
54945;SDS011;40846;44.788;20.486;2024-03-23T04:14:08;35.00;;;18.08;;
54945;SDS011;40846;44.788;20.486;2024-03-23T04:16:36;31.80;;;16.95;;
54945;SDS011;40846;44.788;20.486;2024-03-23T04:19:03;35.55;;;17.65;;
54945;SDS011;40846;44.788;20.486;2024-03-23T04:21:29;35.30;;;17.95;;
54945;SDS011;40846;44.788;20.486;2024-03-23T04:23:55;43.78;;;17.55;;
54945;SDS011;40846;44.788;20.486;2024-03-23T04:26:21;32.85;;;17.88;;
54945;SDS011;40846;44.788;20.486;2024-03-23T04:28:47;42.00;;;18.80;;
54945;SDS011;40846;44.788;20.486;2024-03-23T04:31:13;36.53;;;16.73;;
54945;SDS011;40846;44.788;20.486;2024-03-23T04:33:40;36.33;;;17.25;;
54945;SDS011;40846;44.788;20.486;2024-03-23T04:36:06;34.45;;;16.58;;
54945;SDS011;40846;44.788;20.486;2024-03-23T04:38:32;31.98;;;17.23;;
54945;SDS011;40846;44.788;20.486;2024-03-23T04:40:59;28.48;;;16.98;;
54945;SDS011;40846;44.788;20.486;2024-03-23T04:43:27;45.70;;;17.10;;
54945;SDS011;40846;44.788;20.486;2024-03-23T04:45:54;28.92;;;15.95;;
54945;SDS011;40846;44.788;20.486;2024-03-23T04:48:21;32.65;;;17.52;;
54945;SDS011;40846;44.788;20.486;2024-03-23T04:50:47;36.25;;;16.75;;
54945;SDS011;40846;44.788;20.486;2024-03-23T04:53:14;40.22;;;16.70;;
54945;SDS011;40846;44.788;20.486;2024-03-23T04:55:41;28.85;;;16.85;;
54945;SDS011;40846;44.788;20.486;2024-03-23T04:58:07;30.92;;;19.13;;
54945;SDS011;40846;44.788;20.486;2024-03-23T05:00:33;33.25;;;16.25;;
54945;SDS011;40846;44.788;20.486;2024-03-23T05:02:59;32.17;;;17.25;;
54945;SDS011;40846;44.788;20.486;2024-03-23T05:05:26;34.58;;;17.13;;
54945;SDS011;40846;44.788;20.486;2024-03-23T05:07:52;37.53;;;17.98;;
54945;SDS011;40846;44.788;20.486;2024-03-23T05:10:18;30.48;;;17.40;;
54945;SDS011;40846;44.788;20.486;2024-03-23T05:12:44;32.95;;;17.05;;
54945;SDS011;40846;44.788;20.486;2024-03-23T05:15:10;33.45;;;16.45;;
54945;SDS011;40846;44.788;20.486;2024-03-23T05:17:37;29.50;;;16.80;;
54945;SDS011;40846;44.788;20.486;2024-03-23T05:20:04;37.38;;;17.15;;
54945;SDS011;40846;44.788;20.486;2024-03-23T05:22:34;31.63;;;17.02;;
54945;SDS011;40846;44.788;20.486;2024-03-23T05:25:03;42.55;;;19.08;;
54945;SDS011;40846;44.788;20.486;2024-03-23T05:27:31;28.13;;;15.52;;
54945;SDS011;40846;44.788;20.486;2024-03-23T05:29:57;31.77;;;16.52;;
54945;SDS011;40846;44.788;20.486;2024-03-23T05:32:24;31.95;;;14.82;;
54945;SDS011;40846;44.788;20.486;2024-03-23T05:34:50;35.35;;;15.85;;
54945;SDS011;40846;44.788;20.486;2024-03-23T05:37:21;30.27;;;15.88;;
54945;SDS011;40846;44.788;20.486;2024-03-23T05:39:47;30.52;;;14.60;;
54945;SDS011;40846;44.788;20.486;2024-03-23T05:42:16;24.65;;;13.73;;
54945;SDS011;40846;44.788;20.486;2024-03-23T05:44:45;29.33;;;14.13;;
54945;SDS011;40846;44.788;20.486;2024-03-23T05:47:11;33.97;;;16.55;;
54945;SDS011;40846;44.788;20.486;2024-03-23T05:49:39;28.55;;;16.13;;
54945;SDS011;40846;44.788;20.486;2024-03-23T05:52:09;30.23;;;16.83;;
54945;SDS011;40846;44.788;20.486;2024-03-23T05:54:36;29.83;;;16.50;;
54945;SDS011;40846;44.788;20.486;2024-03-23T05:57:02;33.25;;;15.77;;
54945;SDS011;40846;44.788;20.486;2024-03-23T05:59:29;33.58;;;17.05;;
54945;SDS011;40846;44.788;20.486;2024-03-23T06:01:56;46.58;;;14.93;;
54945;SDS011;40846;44.788;20.486;2024-03-23T06:04:22;32.30;;;15.55;;
54945;SDS011;40846;44.788;20.486;2024-03-23T06:06:48;39.03;;;15.30;;
54945;SDS011;40846;44.788;20.486;2024-03-23T06:09:14;32.45;;;15.18;;
54945;SDS011;40846;44.788;20.486;2024-03-23T06:11:40;28.98;;;13.80;;
54945;SDS011;40846;44.788;20.486;2024-03-23T06:14:05;27.15;;;15.10;;
54945;SDS011;40846;44.788;20.486;2024-03-23T06:16:31;30.60;;;15.18;;
54945;SDS011;40846;44.788;20.486;2024-03-23T06:18:57;28.92;;;14.00;;
54945;SDS011;40846;44.788;20.486;2024-03-23T06:21:23;37.50;;;13.63;;
54945;SDS011;40846;44.788;20.486;2024-03-23T06:23:53;22.40;;;12.52;;
54945;SDS011;40846;44.788;20.486;2024-03-23T06:26:19;26.02;;;12.30;;
54945;SDS011;40846;44.788;20.486;2024-03-23T06:28:45;21.73;;;10.75;;
54945;SDS011;40846;44.788;20.486;2024-03-23T06:31:12;24.17;;;10.93;;
54945;SDS011;40846;44.788;20.486;2024-03-23T06:33:38;25.42;;;12.48;;
54945;SDS011;40846;44.788;20.486;2024-03-23T06:36:06;22.50;;;11.98;;
54945;SDS011;40846;44.788;20.486;2024-03-23T06:38:32;26.30;;;12.18;;
54945;SDS011;40846;44.788;20.486;2024-03-23T06:40:58;19.77;;;12.23;;
54945;SDS011;40846;44.788;20.486;2024-03-23T06:43:24;27.30;;;12.35;;
54945;SDS011;40846;44.788;20.486;2024-03-23T06:45:53;31.17;;;11.93;;
54945;SDS011;40846;44.788;20.486;2024-03-23T06:48:19;20.50;;;10.43;;
54945;SDS011;40846;44.788;20.486;2024-03-23T06:50:46;23.48;;;11.18;;
54945;SDS011;40846;44.788;20.486;2024-03-23T06:53:15;33.13;;;11.65;;
54945;SDS011;40846;44.788;20.486;2024-03-23T06:55:41;21.98;;;11.43;;
54945;SDS011;40846;44.788;20.486;2024-03-23T06:58:07;22.55;;;9.95;;
54945;SDS011;40846;44.788;20.486;2024-03-23T07:00:35;27.30;;;9.30;;
54945;SDS011;40846;44.788;20.486;2024-03-23T07:03:02;17.73;;;9.52;;
54945;SDS011;40846;44.788;20.486;2024-03-23T07:05:29;22.50;;;9.50;;
54945;SDS011;40846;44.788;20.486;2024-03-23T07:07:55;18.92;;;9.95;;
54945;SDS011;40846;44.788;20.486;2024-03-23T07:10:21;16.95;;;9.23;;
54945;SDS011;40846;44.788;20.486;2024-03-23T07:12:47;18.70;;;10.18;;
54945;SDS011;40846;44.788;20.486;2024-03-23T07:15:13;25.73;;;9.63;;
54945;SDS011;40846;44.788;20.486;2024-03-23T07:17:41;18.67;;;9.77;;
54945;SDS011;40846;44.788;20.486;2024-03-23T07:20:07;18.92;;;8.93;;
54945;SDS011;40846;44.788;20.486;2024-03-23T07:22:35;19.85;;;8.90;;
54945;SDS011;40846;44.788;20.486;2024-03-23T07:25:01;14.02;;;8.48;;
54945;SDS011;40846;44.788;20.486;2024-03-23T07:27:28;19.05;;;9.45;;
54945;SDS011;40846;44.788;20.486;2024-03-23T07:29:54;16.52;;;8.73;;
54945;SDS011;40846;44.788;20.486;2024-03-23T07:32:20;16.00;;;9.43;;
54945;SDS011;40846;44.788;20.486;2024-03-23T07:34:46;16.75;;;9.35;;
54945;SDS011;40846;44.788;20.486;2024-03-23T07:37:12;15.55;;;9.25;;
54945;SDS011;40846;44.788;20.486;2024-03-23T07:39:41;13.95;;;8.23;;
54945;SDS011;40846;44.788;20.486;2024-03-23T07:42:08;17.45;;;9.38;;
54945;SDS011;40846;44.788;20.486;2024-03-23T07:44:34;13.57;;;8.75;;
54945;SDS011;40846;44.788;20.486;2024-03-23T07:47:02;14.23;;;8.48;;
54945;SDS011;40846;44.788;20.486;2024-03-23T07:49:28;13.82;;;9.15;;
54945;SDS011;40846;44.788;20.486;2024-03-23T07:51:54;15.55;;;9.70;;
54945;SDS011;40846;44.788;20.486;2024-03-23T07:54:20;12.68;;;8.23;;
54945;SDS011;40846;44.788;20.486;2024-03-23T07:56:47;10.13;;;7.97;;
54945;SDS011;40846;44.788;20.486;2024-03-23T07:59:13;14.02;;;9.10;;
54945;SDS011;40846;44.788;20.486;2024-03-23T08:01:39;12.05;;;8.38;;
54945;SDS011;40846;44.788;20.486;2024-03-23T08:04:05;15.15;;;11.30;;
54945;SDS011;40846;44.788;20.486;2024-03-23T08:06:31;16.33;;;13.88;;
54945;SDS011;40846;44.788;20.486;2024-03-23T08:08:58;18.13;;;14.43;;
54945;SDS011;40846;44.788;20.486;2024-03-23T08:11:28;15.60;;;9.63;;
54945;SDS011;40846;44.788;20.486;2024-03-23T08:13:54;10.13;;;8.50;;
54945;SDS011;40846;44.788;20.486;2024-03-23T08:16:21;12.35;;;10.02;;
54945;SDS011;40846;44.788;20.486;2024-03-23T08:18:47;13.80;;;9.35;;
54945;SDS011;40846;44.788;20.486;2024-03-23T08:21:13;20.98;;;10.05;;
54945;SDS011;40846;44.788;20.486;2024-03-23T08:23:39;12.88;;;9.32;;
54945;SDS011;40846;44.788;20.486;2024-03-23T08:26:09;15.57;;;10.15;;
54945;SDS011;40846;44.788;20.486;2024-03-23T08:28:36;11.90;;;9.65;;
54945;SDS011;40846;44.788;20.486;2024-03-23T08:31:09;14.90;;;12.85;;
54945;SDS011;40846;44.788;20.486;2024-03-23T08:33:36;16.30;;;9.55;;
54945;SDS011;40846;44.788;20.486;2024-03-23T08:36:04;14.75;;;12.18;;
54945;SDS011;40846;44.788;20.486;2024-03-23T08:38:32;15.80;;;9.90;;
54945;SDS011;40846;44.788;20.486;2024-03-23T08:41:05;21.88;;;19.88;;
54945;SDS011;40846;44.788;20.486;2024-03-23T08:43:32;14.27;;;9.05;;
54945;SDS011;40846;44.788;20.486;2024-03-23T08:48:34;16.23;;;9.18;;
54945;SDS011;40846;44.788;20.486;2024-03-23T08:51:04;13.45;;;9.63;;
54945;SDS011;40846;44.788;20.486;2024-03-23T08:53:30;13.77;;;8.18;;
54945;SDS011;40846;44.788;20.486;2024-03-23T08:55:57;11.60;;;8.52;;
54945;SDS011;40846;44.788;20.486;2024-03-23T08:58:24;14.85;;;10.02;;
54945;SDS011;40846;44.788;20.486;2024-03-23T09:00:52;13.43;;;9.88;;
54945;SDS011;40846;44.788;20.486;2024-03-23T09:03:18;12.48;;;9.45;;
54945;SDS011;40846;44.788;20.486;2024-03-23T09:05:44;12.02;;;8.93;;
54945;SDS011;40846;44.788;20.486;2024-03-23T09:08:10;11.20;;;8.85;;
54945;SDS011;40846;44.788;20.486;2024-03-23T09:10:39;13.27;;;8.35;;
54945;SDS011;40846;44.788;20.486;2024-03-23T09:13:05;15.13;;;9.48;;
54945;SDS011;40846;44.788;20.486;2024-03-23T09:15:34;15.27;;;11.00;;
54945;SDS011;40846;44.788;20.486;2024-03-23T09:18:00;12.75;;;9.00;;
54945;SDS011;40846;44.788;20.486;2024-03-23T09:20:26;15.07;;;8.73;;
54945;SDS011;40846;44.788;20.486;2024-03-23T09:22:52;14.32;;;8.57;;
54945;SDS011;40846;44.788;20.486;2024-03-23T09:25:18;14.00;;;8.15;;
54945;SDS011;40846;44.788;20.486;2024-03-23T09:27:47;11.18;;;7.97;;
54945;SDS011;40846;44.788;20.486;2024-03-23T09:30:13;12.60;;;8.05;;
54945;SDS011;40846;44.788;20.486;2024-03-23T09:32:43;13.48;;;7.57;;
54945;SDS011;40846;44.788;20.486;2024-03-23T09:35:10;9.68;;;7.85;;
54945;SDS011;40846;44.788;20.486;2024-03-23T09:37:37;9.75;;;7.22;;
54945;SDS011;40846;44.788;20.486;2024-03-23T09:40:07;8.55;;;7.40;;
54945;SDS011;40846;44.788;20.486;2024-03-23T09:42:35;12.48;;;6.93;;
54945;SDS011;40846;44.788;20.486;2024-03-23T09:45:01;10.07;;;7.22;;
54945;SDS011;40846;44.788;20.486;2024-03-23T09:47:27;11.18;;;7.00;;
54945;SDS011;40846;44.788;20.486;2024-03-23T09:49:54;7.70;;;6.90;;
54945;SDS011;40846;44.788;20.486;2024-03-23T09:52:20;8.40;;;6.93;;
54945;SDS011;40846;44.788;20.486;2024-03-23T09:54:46;7.68;;;5.40;;
54945;SDS011;40846;44.788;20.486;2024-03-23T09:57:12;10.52;;;4.80;;
54945;SDS011;40846;44.788;20.486;2024-03-23T09:59:38;11.27;;;4.97;;
54945;SDS011;40846;44.788;20.486;2024-03-23T10:02:04;7.53;;;4.60;;
54945;SDS011;40846;44.788;20.486;2024-03-23T10:04:40;5.53;;;4.05;;
54945;SDS011;40846;44.788;20.486;2024-03-23T10:07:13;7.93;;;4.47;;
54945;SDS011;40846;44.788;20.486;2024-03-23T10:09:43;8.07;;;4.47;;
54945;SDS011;40846;44.788;20.486;2024-03-23T10:14:36;7.90;;;4.13;;
54945;SDS011;40846;44.788;20.486;2024-03-23T10:19:50;6.65;;;3.15;;
54945;SDS011;40846;44.788;20.486;2024-03-23T10:22:23;6.03;;;3.60;;
54945;SDS011;40846;44.788;20.486;2024-03-23T10:24:52;10.07;;;3.42;;
54945;SDS011;40846;44.788;20.486;2024-03-23T10:27:19;9.98;;;4.90;;
54945;SDS011;40846;44.788;20.486;2024-03-23T10:29:45;7.05;;;3.70;;
54945;SDS011;40846;44.788;20.486;2024-03-23T10:32:12;7.00;;;3.50;;
54945;SDS011;40846;44.788;20.486;2024-03-23T10:34:39;7.25;;;3.67;;
54945;SDS011;40846;44.788;20.486;2024-03-23T10:37:05;6.53;;;3.35;;
54945;SDS011;40846;44.788;20.486;2024-03-23T10:39:34;6.80;;;3.65;;
54945;SDS011;40846;44.788;20.486;2024-03-23T10:42:07;9.18;;;3.58;;
54945;SDS011;40846;44.788;20.486;2024-03-23T10:44:35;10.07;;;3.65;;
54945;SDS011;40846;44.788;20.486;2024-03-23T10:47:01;5.75;;;3.10;;
54945;SDS011;40846;44.788;20.486;2024-03-23T10:52:00;10.15;;;4.00;;
54945;SDS011;40846;44.788;20.486;2024-03-23T10:54:26;9.77;;;4.47;;
54945;SDS011;40846;44.788;20.486;2024-03-23T10:59:41;7.63;;;3.75;;
54945;SDS011;40846;44.788;20.486;2024-03-23T11:02:08;5.63;;;3.03;;
54945;SDS011;40846;44.788;20.486;2024-03-23T11:04:44;9.15;;;2.85;;
54945;SDS011;40846;44.788;20.486;2024-03-23T11:07:31;11.02;;;3.55;;
54945;SDS011;40846;44.788;20.486;2024-03-23T11:09:57;7.47;;;3.28;;
54945;SDS011;40846;44.788;20.486;2024-03-23T11:15:05;7.18;;;3.30;;
54945;SDS011;40846;44.788;20.486;2024-03-23T11:17:32;9.32;;;3.40;;
54945;SDS011;40846;44.788;20.486;2024-03-23T11:19:59;9.75;;;4.13;;
54945;SDS011;40846;44.788;20.486;2024-03-23T11:22:38;10.13;;;4.22;;
54945;SDS011;40846;44.788;20.486;2024-03-23T11:25:17;8.95;;;3.55;;
54945;SDS011;40846;44.788;20.486;2024-03-23T11:27:46;9.48;;;3.85;;
54945;SDS011;40846;44.788;20.486;2024-03-23T11:30:16;7.38;;;3.38;;
54945;SDS011;40846;44.788;20.486;2024-03-23T11:32:43;6.60;;;2.97;;
54945;SDS011;40846;44.788;20.486;2024-03-23T11:35:10;7.93;;;3.50;;
54945;SDS011;40846;44.788;20.486;2024-03-23T11:37:37;7.07;;;3.28;;
54945;SDS011;40846;44.788;20.486;2024-03-23T11:40:21;8.32;;;3.47;;
54945;SDS011;40846;44.788;20.486;2024-03-23T11:42:54;6.90;;;2.85;;
54945;SDS011;40846;44.788;20.486;2024-03-23T11:45:20;9.38;;;3.47;;
54945;SDS011;40846;44.788;20.486;2024-03-23T11:47:47;9.95;;;2.80;;
54945;SDS011;40846;44.788;20.486;2024-03-23T11:50:19;5.88;;;3.40;;
54945;SDS011;40846;44.788;20.486;2024-03-23T11:52:46;6.65;;;3.40;;
54945;SDS011;40846;44.788;20.486;2024-03-23T11:55:12;7.97;;;3.25;;
54945;SDS011;40846;44.788;20.486;2024-03-23T11:57:38;5.25;;;2.83;;
54945;SDS011;40846;44.788;20.486;2024-03-23T12:00:19;8.77;;;4.53;;
54945;SDS011;40846;44.788;20.486;2024-03-23T12:02:46;9.52;;;3.40;;
54945;SDS011;40846;44.788;20.486;2024-03-23T12:05:15;13.48;;;3.80;;
54945;SDS011;40846;44.788;20.486;2024-03-23T12:07:41;8.35;;;3.25;;
54945;SDS011;40846;44.788;20.486;2024-03-23T12:10:08;5.10;;;3.15;;
54945;SDS011;40846;44.788;20.486;2024-03-23T12:12:34;8.90;;;3.85;;
54945;SDS011;40846;44.788;20.486;2024-03-23T12:15:04;5.50;;;3.33;;
54945;SDS011;40846;44.788;20.486;2024-03-23T12:17:31;4.57;;;3.28;;
54945;SDS011;40846;44.788;20.486;2024-03-23T12:19:57;9.10;;;3.42;;
54945;SDS011;40846;44.788;20.486;2024-03-23T12:22:24;8.30;;;3.53;;
54945;SDS011;40846;44.788;20.486;2024-03-23T12:24:50;6.45;;;3.47;;
54945;SDS011;40846;44.788;20.486;2024-03-23T12:27:16;5.93;;;2.78;;
54945;SDS011;40846;44.788;20.486;2024-03-23T12:29:43;8.25;;;3.13;;
54945;SDS011;40846;44.788;20.486;2024-03-23T12:32:11;9.38;;;3.63;;
54945;SDS011;40846;44.788;20.486;2024-03-23T12:34:37;7.95;;;3.78;;
54945;SDS011;40846;44.788;20.486;2024-03-23T12:37:04;8.45;;;3.33;;
54945;SDS011;40846;44.788;20.486;2024-03-23T12:39:31;7.55;;;3.95;;
54945;SDS011;40846;44.788;20.486;2024-03-23T12:41:57;15.50;;;3.88;;
54945;SDS011;40846;44.788;20.486;2024-03-23T12:44:24;9.30;;;3.70;;
54945;SDS011;40846;44.788;20.486;2024-03-23T12:46:50;7.90;;;4.00;;
54945;SDS011;40846;44.788;20.486;2024-03-23T12:49:16;9.02;;;3.50;;
54945;SDS011;40846;44.788;20.486;2024-03-23T12:51:46;8.10;;;3.38;;
54945;SDS011;40846;44.788;20.486;2024-03-23T12:54:13;4.60;;;2.92;;
54945;SDS011;40846;44.788;20.486;2024-03-23T12:56:40;6.10;;;3.15;;
54945;SDS011;40846;44.788;20.486;2024-03-23T12:59:06;7.75;;;3.35;;
54945;SDS011;40846;44.788;20.486;2024-03-23T13:01:32;7.10;;;3.33;;
54945;SDS011;40846;44.788;20.486;2024-03-23T13:03:59;7.88;;;3.00;;
54945;SDS011;40846;44.788;20.486;2024-03-23T13:06:26;9.98;;;4.40;;
54945;SDS011;40846;44.788;20.486;2024-03-23T13:08:52;6.45;;;3.70;;
54945;SDS011;40846;44.788;20.486;2024-03-23T13:11:19;6.43;;;3.28;;
54945;SDS011;40846;44.788;20.486;2024-03-23T13:13:46;10.45;;;3.28;;
54945;SDS011;40846;44.788;20.486;2024-03-23T13:16:12;9.25;;;3.80;;
54945;SDS011;40846;44.788;20.486;2024-03-23T13:18:38;5.30;;;3.65;;
54945;SDS011;40846;44.788;20.486;2024-03-23T13:21:04;4.93;;;3.20;;
54945;SDS011;40846;44.788;20.486;2024-03-23T13:23:30;8.38;;;3.97;;
54945;SDS011;40846;44.788;20.486;2024-03-23T13:25:57;5.75;;;3.72;;
54945;SDS011;40846;44.788;20.486;2024-03-23T13:28:24;9.57;;;3.85;;
54945;SDS011;40846;44.788;20.486;2024-03-23T13:30:53;8.77;;;4.15;;
54945;SDS011;40846;44.788;20.486;2024-03-23T13:33:19;10.55;;;3.40;;
54945;SDS011;40846;44.788;20.486;2024-03-23T13:35:51;6.30;;;2.92;;
54945;SDS011;40846;44.788;20.486;2024-03-23T13:38:18;13.95;;;3.67;;
54945;SDS011;40846;44.788;20.486;2024-03-23T13:40:53;8.15;;;3.90;;
54945;SDS011;40846;44.788;20.486;2024-03-23T13:43:21;5.50;;;3.13;;
54945;SDS011;40846;44.788;20.486;2024-03-23T13:45:48;5.82;;;3.72;;
54945;SDS011;40846;44.788;20.486;2024-03-23T13:48:15;6.63;;;3.67;;
54945;SDS011;40846;44.788;20.486;2024-03-23T13:50:41;7.97;;;3.80;;
54945;SDS011;40846;44.788;20.486;2024-03-23T13:53:07;29.83;;;4.25;;
54945;SDS011;40846;44.788;20.486;2024-03-23T13:55:34;13.05;;;3.45;;
54945;SDS011;40846;44.788;20.486;2024-03-23T13:58:01;5.63;;;3.40;;
54945;SDS011;40846;44.788;20.486;2024-03-23T14:00:27;7.85;;;3.58;;
54945;SDS011;40846;44.788;20.486;2024-03-23T14:02:53;7.25;;;3.35;;
54945;SDS011;40846;44.788;20.486;2024-03-23T14:05:19;6.03;;;3.33;;
54945;SDS011;40846;44.788;20.486;2024-03-23T14:07:45;17.52;;;3.85;;
54945;SDS011;40846;44.788;20.486;2024-03-23T14:10:11;5.80;;;3.55;;
54945;SDS011;40846;44.788;20.486;2024-03-23T14:12:38;6.38;;;4.22;;
54945;SDS011;40846;44.788;20.486;2024-03-23T14:15:07;15.75;;;4.05;;
54945;SDS011;40846;44.788;20.486;2024-03-23T14:17:34;5.70;;;3.25;;
54945;SDS011;40846;44.788;20.486;2024-03-23T14:20:00;7.53;;;4.05;;
54945;SDS011;40846;44.788;20.486;2024-03-23T14:22:29;5.05;;;3.58;;
54945;SDS011;40846;44.788;20.486;2024-03-23T14:24:55;10.18;;;3.88;;
54945;SDS011;40846;44.788;20.486;2024-03-23T14:27:21;5.80;;;3.60;;
54945;SDS011;40846;44.788;20.486;2024-03-23T14:29:48;9.25;;;3.33;;
54945;SDS011;40846;44.788;20.486;2024-03-23T14:32:14;6.90;;;4.10;;
54945;SDS011;40846;44.788;20.486;2024-03-23T14:34:41;6.07;;;3.28;;
54945;SDS011;40846;44.788;20.486;2024-03-23T14:37:07;15.38;;;4.57;;
54945;SDS011;40846;44.788;20.486;2024-03-23T14:39:33;5.07;;;3.58;;
54945;SDS011;40846;44.788;20.486;2024-03-23T14:42:02;10.25;;;3.97;;
54945;SDS011;40846;44.788;20.486;2024-03-23T14:44:28;8.70;;;3.42;;
54945;SDS011;40846;44.788;20.486;2024-03-23T14:46:55;8.68;;;3.28;;
54945;SDS011;40846;44.788;20.486;2024-03-23T14:49:21;6.68;;;4.00;;
54945;SDS011;40846;44.788;20.486;2024-03-23T14:51:47;11.05;;;4.22;;
54945;SDS011;40846;44.788;20.486;2024-03-23T14:54:13;12.15;;;3.85;;
54945;SDS011;40846;44.788;20.486;2024-03-23T14:56:39;7.60;;;4.88;;
54945;SDS011;40846;44.788;20.486;2024-03-23T14:59:05;8.75;;;6.45;;
54945;SDS011;40846;44.788;20.486;2024-03-23T15:01:32;9.38;;;5.55;;
54945;SDS011;40846;44.788;20.486;2024-03-23T15:03:59;7.07;;;4.32;;
54945;SDS011;40846;44.788;20.486;2024-03-23T15:06:25;5.68;;;3.55;;
54945;SDS011;40846;44.788;20.486;2024-03-23T15:08:51;9.25;;;4.22;;
54945;SDS011;40846;44.788;20.486;2024-03-23T15:11:19;9.88;;;3.67;;
54945;SDS011;40846;44.788;20.486;2024-03-23T15:13:45;13.48;;;4.53;;
54945;SDS011;40846;44.788;20.486;2024-03-23T15:16:18;9.90;;;3.85;;
54945;SDS011;40846;44.788;20.486;2024-03-23T15:18:47;7.25;;;3.75;;
54945;SDS011;40846;44.788;20.486;2024-03-23T15:21:14;6.20;;;3.80;;
54945;SDS011;40846;44.788;20.486;2024-03-23T15:23:45;7.13;;;3.65;;
54945;SDS011;40846;44.788;20.486;2024-03-23T15:26:11;6.85;;;4.15;;
54945;SDS011;40846;44.788;20.486;2024-03-23T15:28:37;5.85;;;3.33;;
54945;SDS011;40846;44.788;20.486;2024-03-23T15:31:09;8.38;;;3.92;;